Time;durP1;ratioP1;P1;durP2;ratioP2;P2;SDS_P1;SDS_P2;PMS_P1;PMS_P2;Temp;Humidity;BMP_temperature;BMP_pressure;BME280_temperature;BME280_humidity;BME280_pressure;Samples;Min_cycle;Max_cycle;Signal;HPM_P1;HPM_P2
2021/08/12 00:01:10;;;;;;;2.88;2.03;;;14.70;99.90;;;;;;5006288;28;20042;-81
2021/08/12 00:03:35;;;;;;;3.47;2.08;;;14.70;99.90;;;;;;5007741;28;20089;-81
2021/08/12 00:06:01;;;;;;;4.25;2.10;;;14.70;99.90;;;;;;5006437;28;20041;-81
2021/08/12 00:08:26;;;;;;;4.05;2.30;;;14.70;99.90;;;;;;5022877;28;20061;-81
2021/08/12 00:10:52;;;;;;;3.58;2.70;;;14.50;99.90;;;;;;5006375;28;20250;-81
2021/08/12 00:13:19;;;;;;;3.25;1.83;;;14.50;99.90;;;;;;5006479;28;20386;-81
2021/08/12 00:15:45;;;;;;;4.15;1.98;;;14.50;99.90;;;;;;5006966;28;20126;-81
2021/08/12 00:18:10;;;;;;;5.25;1.67;;;14.50;99.90;;;;;;5009466;28;20030;-81
2021/08/12 00:20:36;;;;;;;4.50;2.47;;;14.50;99.90;;;;;;5025683;28;20513;-81
2021/08/12 00:23:02;;;;;;;5.30;2.22;;;14.60;99.90;;;;;;5009392;28;20037;-81
2021/08/12 00:25:28;;;;;;;5.43;3.10;;;14.60;99.90;;;;;;5025716;28;20042;-81
2021/08/12 00:27:53;;;;;;;6.03;2.72;;;14.60;99.90;;;;;;5025733;28;20037;-81
2021/08/12 00:30:19;;;;;;;3.95;2.35;;;14.50;99.90;;;;;;5005884;28;20030;-81
2021/08/12 00:32:45;;;;;;;3.33;1.95;;;14.60;99.90;;;;;;4989667;28;20037;-81
2021/08/12 00:35:11;;;;;;;5.15;3.42;;;14.50;99.90;;;;;;5005800;28;20036;-81
2021/08/12 00:37:37;;;;;;;3.83;2.30;;;14.40;99.90;;;;;;5005830;28;20054;-81
2021/08/12 00:40:04;;;;;;;3.58;2.10;;;14.40;99.90;;;;;;5005640;28;20026;-81
2021/08/12 00:42:32;;;;;;;4.85;2.72;;;14.30;99.90;;;;;;4989926;28;20403;-81
2021/08/12 00:44:58;;;;;;;5.70;2.38;;;14.30;99.90;;;;;;5005635;28;20044;-81
2021/08/12 00:47:23;;;;;;;3.92;1.90;;;14.30;99.90;;;;;;5004782;28;20069;-81
2021/08/12 00:49:49;;;;;;;4.55;2.15;;;14.30;99.90;;;;;;5005274;28;20030;-80
2021/08/12 00:52:15;;;;;;;6.35;2.63;;;14.30;99.90;;;;;;5005649;28;20126;-81
2021/08/12 00:54:43;;;;;;;3.45;2.75;;;14.20;99.90;;;;;;4989656;28;20019;-81
2021/08/12 00:57:10;;;;;;;6.20;2.63;;;14.20;99.90;;;;;;5005448;28;20407;-81
2021/08/12 00:59:39;;;;;;;5.28;2.97;;;14.10;99.90;;;;;;4989079;28;20189;-81
2021/08/12 01:02:10;;;;;;;4.03;2.42;;;14.10;99.90;;;;;;4989116;28;20026;-81
2021/08/12 01:04:39;;;;;;;5.90;3.47;;;14.10;99.90;;;;;;4989239;28;20038;-81
2021/08/12 01:07:25;;;;;;;5.13;2.95;;;14.10;99.90;;;;;;4988862;28;20034;-80
2021/08/12 01:10:14;;;;;;;5.45;2.92;;;14.20;99.90;;;;;;4988904;28;20034;-81
2021/08/12 01:13:04;;;;;;;6.82;3.50;;;14.10;99.90;;;;;;5005200;28;20100;-81
2021/08/12 01:15:44;;;;;;;4.30;3.15;;;14.10;99.90;;;;;;5004981;28;20022;-81
2021/08/12 01:18:18;;;;;;;4.80;2.85;;;14.10;99.90;;;;;;5021341;28;20041;-81
2021/08/12 01:21:02;;;;;;;6.50;4.00;;;14.00;99.90;;;;;;4988734;28;20049;-81
2021/08/12 01:23:29;;;;;;;5.13;3.03;;;14.10;99.90;;;;;;5004981;28;20036;-81
2021/08/12 01:25:58;;;;;;;5.82;3.08;;;14.00;99.90;;;;;;4988718;28;20052;-81
2021/08/12 01:28:29;;;;;;;6.93;3.53;;;14.00;99.90;;;;;;4989430;28;20027;-81
2021/08/12 01:31:16;;;;;;;6.20;3.40;;;13.90;99.90;;;;;;5004817;28;20346;-82
2021/08/12 01:33:53;;;;;;;4.97;3.00;;;13.90;99.90;;;;;;5004832;28;20022;-81
2021/08/12 01:36:22;;;;;;;4.60;3.35;;;13.90;99.90;;;;;;5005033;28;20031;-81
2021/08/12 01:38:50;;;;;;;4.95;3.13;;;13.90;99.90;;;;;;5004884;28;20062;-81
2021/08/12 01:41:20;;;;;;;6.03;2.95;;;13.90;99.90;;;;;;5004670;28;20045;-81
2021/08/12 01:43:46;;;;;;;5.07;3.20;;;13.90;99.90;;;;;;5006109;28;20097;-81
2021/08/12 01:46:13;;;;;;;5.30;2.85;;;13.80;99.90;;;;;;5004681;28;20034;-81
2021/08/12 01:48:39;;;;;;;4.00;2.78;;;13.80;99.90;;;;;;5004553;28;20061;-81
2021/08/12 01:51:05;;;;;;;6.72;3.20;;;13.80;99.90;;;;;;5004488;28;20510;-81
2021/08/12 01:53:32;;;;;;;3.75;2.70;;;13.80;99.90;;;;;;5004689;28;20438;-81
2021/08/12 01:56:00;;;;;;;5.50;3.08;;;13.80;99.90;;;;;;5004576;28;20027;-81
2021/08/12 01:58:28;;;;;;;4.15;3.05;;;13.80;99.90;;;;;;5004674;28;20057;-82
2021/08/12 02:00:56;;;;;;;4.85;3.17;;;13.90;99.90;;;;;;5007920;28;20042;-81
2021/08/12 02:03:24;;;;;;;5.93;3.17;;;13.90;99.90;;;;;;5008502;28;20045;-81
2021/08/12 02:05:51;;;;;;;5.07;2.90;;;13.90;99.90;;;;;;5008593;28;20027;-81
2021/08/12 02:08:19;;;;;;;5.60;3.45;;;13.80;99.90;;;;;;5009037;28;20081;-82
2021/08/12 02:10:50;;;;;;;4.47;3.03;;;13.90;99.90;;;;;;4993503;28;20022;-80
2021/08/12 02:13:16;;;;;;;4.13;2.83;;;13.80;99.90;;;;;;5009741;28;20650;-81
2021/08/12 02:15:42;;;;;;;4.65;3.08;;;13.80;99.90;;;;;;5009876;28;20043;-82
2021/08/12 02:18:08;;;;;;;5.50;3.78;;;13.80;99.90;;;;;;5027646;28;20041;-82
2021/08/12 02:20:36;;;;;;;3.80;3.17;;;13.80;99.90;;;;;;5011710;28;20029;-82
2021/08/12 02:23:20;;;;;;;4.07;2.85;;;13.80;99.90;;;;;;5027864;28;20046;-82
2021/08/12 02:26:02;;;;;;;7.50;3.08;;;13.70;99.90;;;;;;5027951;28;20080;-82
2021/08/12 02:28:30;;;;;;;5.78;3.53;;;13.80;99.90;;;;;;5011451;28;20022;-81
2021/08/12 02:30:58;;;;;;;5.13;3.40;;;13.90;99.90;;;;;;5011399;28;20029;-81
2021/08/12 02:33:27;;;;;;;6.15;3.67;;;13.90;99.90;;;;;;5011213;28;20408;-82
2021/08/12 02:35:54;;;;;;;5.70;3.45;;;13.90;99.90;;;;;;5011504;28;20026;-82
2021/08/12 02:38:22;;;;;;;4.85;3.92;;;13.90;99.90;;;;;;5011194;28;20026;-81
2021/08/12 02:40:51;;;;;;;5.78;3.17;;;13.90;99.90;;;;;;5027536;28;20022;-81
2021/08/12 02:43:19;;;;;;;5.70;3.70;;;13.90;99.90;;;;;;5027524;28;20448;-81
2021/08/12 02:48:34;;;;;;;6.05;3.35;;;13.80;99.90;;;;;;4970572;28;20502;-81
2021/08/12 02:51:03;;;;;;;6.60;3.80;;;13.80;99.90;;;;;;4986729;28;20039;-81
2021/08/12 02:53:31;;;;;;;4.50;3.30;;;13.80;99.90;;;;;;4986984;28;20038;-81
2021/08/12 02:55:58;;;;;;;5.38;3.65;;;13.90;99.90;;;;;;4970784;28;20030;-81
2021/08/12 02:58:32;;;;;;;6.22;2.92;;;14.00;99.90;;;;;;4970767;28;20097;-81
2021/08/12 03:00:59;;;;;;;4.53;3.03;;;14.00;99.90;;;;;;4986850;28;20047;-82
2021/08/12 03:03:27;;;;;;;6.85;4.07;;;14.00;99.90;;;;;;4986651;28;20038;-81
2021/08/12 03:05:53;;;;;;;5.55;3.85;;;14.10;99.90;;;;;;4970572;28;20121;-82
2021/08/12 03:08:21;;;;;;;7.32;4.75;;;14.00;99.90;;;;;;4986604;28;20034;-82
2021/08/12 03:10:48;;;;;;;6.10;4.28;;;14.10;99.90;;;;;;4986431;28;20027;-82
2021/08/12 03:13:15;;;;;;;5.65;4.57;;;14.10;99.90;;;;;;4986575;28;20106;-83
2021/08/12 03:15:42;;;;;;;5.50;4.00;;;14.00;99.90;;;;;;4986502;28;20039;-83
2021/08/12 03:18:09;;;;;;;6.63;3.83;;;14.10;99.90;;;;;;4954461;28;20094;-82
2021/08/12 03:20:36;;;;;;;6.25;3.95;;;14.00;99.90;;;;;;4954299;28;20042;-82
2021/08/12 03:23:02;;;;;;;6.53;4.15;;;14.00;99.90;;;;;;4970378;28;20136;-82
2021/08/12 03:25:28;;;;;;;6.28;3.88;;;13.90;99.90;;;;;;4993795;28;20048;-84
2021/08/12 03:27:54;;;;;;;4.88;3.33;;;13.90;99.90;;;;;;5027793;28;20470;-82
2021/08/12 03:30:20;;;;;;;6.47;4.07;;;13.90;99.90;;;;;;5010328;28;20030;-82
2021/08/12 03:32:46;;;;;;;5.07;3.60;;;13.80;99.90;;;;;;5026567;28;20065;-82
2021/08/12 03:35:11;;;;;;;5.43;4.35;;;13.80;99.90;;;;;;5010290;28;20022;-83
2021/08/12 03:37:38;;;;;;;5.90;3.75;;;13.90;99.90;;;;;;5010309;28;20030;-83
2021/08/12 03:40:05;;;;;;;5.22;3.97;;;13.90;99.90;;;;;;5010142;28;20030;-83
2021/08/12 03:42:31;;;;;;;6.18;4.50;;;13.70;99.90;;;;;;5009993;28;20489;-82
2021/08/12 03:44:57;;;;;;;5.53;4.30;;;13.60;99.90;;;;;;5010257;28;20030;-82
2021/08/12 03:47:22;;;;;;;6.70;3.85;;;13.60;99.90;;;;;;5009794;28;20052;-82
2021/08/12 03:49:48;;;;;;;10.13;4.85;;;13.60;99.90;;;;;;5026247;28;20038;-82
2021/08/12 03:52:14;;;;;;;6.47;4.28;;;13.60;99.90;;;;;;5026599;28;20053;-83
2021/08/12 03:54:39;;;;;;;5.30;3.75;;;13.60;99.90;;;;;;5009972;28;20121;-82
2021/08/12 03:57:06;;;;;;;7.80;4.15;;;13.50;99.90;;;;;;5026363;28;20040;-82
2021/08/12 03:59:32;;;;;;;5.38;3.97;;;13.50;99.90;;;;;;5009703;28;20041;-82
2021/08/12 04:01:58;;;;;;;5.78;4.63;;;13.40;99.90;;;;;;5026334;28;20089;-82
2021/08/12 04:04:23;;;;;;;6.65;3.97;;;13.40;99.90;;;;;;5025958;28;20069;-83
2021/08/12 04:06:50;;;;;;;5.97;4.28;;;13.40;99.90;;;;;;5009778;28;20431;-81
2021/08/12 04:09:16;;;;;;;5.18;3.70;;;13.40;99.90;;;;;;5025915;28;20022;-83
2021/08/12 04:11:42;;;;;;;5.65;4.43;;;13.40;99.90;;;;;;5009826;28;20025;-83
2021/08/12 04:14:07;;;;;;;5.90;4.20;;;13.30;99.90;;;;;;5025978;28;20022;-82
2021/08/12 04:16:35;;;;;;;5.90;3.88;;;13.40;99.90;;;;;;5009475;28;20041;-82
2021/08/12 04:19:03;;;;;;;6.60;4.45;;;13.40;99.90;;;;;;5009704;28;20034;-83
2021/08/12 04:21:28;;;;;;;5.65;4.15;;;13.50;99.90;;;;;;5026884;28;20037;-83
2021/08/12 04:23:54;;;;;;;6.20;3.75;;;13.50;99.90;;;;;;5025462;28;20085;-86
2021/08/12 04:26:20;;;;;;;5.63;4.03;;;13.50;99.90;;;;;;5039048;28;20034;-83
2021/08/12 04:28:46;;;;;;;4.55;3.72;;;13.40;99.90;;;;;;5021746;28;20067;-84
2021/08/12 04:31:18;;;;;;;6.38;4.15;;;13.50;99.90;;;;;;5005405;28;20018;-83
2021/08/12 04:33:44;;;;;;;6.97;4.38;;;13.50;99.90;;;;;;5004904;28;20484;-82
2021/08/12 04:36:10;;;;;;;5.70;4.38;;;13.40;99.90;;;;;;4988956;28;20034;-83
2021/08/12 04:38:36;;;;;;;5.15;3.38;;;13.50;99.90;;;;;;5004801;28;20019;-82
2021/08/12 04:41:03;;;;;;;5.50;4.25;;;13.50;99.90;;;;;;4988851;28;20556;-82
2021/08/12 04:43:30;;;;;;;7.38;4.30;;;13.60;99.90;;;;;;4988426;28;20077;-82
2021/08/12 04:46:16;;;;;;;7.25;3.83;;;13.60;99.90;;;;;;4988730;28;20029;-82
2021/08/12 04:48:42;;;;;;;6.82;4.25;;;13.60;99.90;;;;;;4951574;28;20059;-82
2021/08/12 04:51:07;;;;;;;6.55;3.97;;;13.60;99.90;;;;;;4984147;28;20134;-82
2021/08/12 04:53:33;;;;;;;8.10;4.22;;;13.60;99.90;;;;;;4968056;28;20043;-83
2021/08/12 04:55:59;;;;;;;6.05;3.88;;;13.60;99.90;;;;;;4951956;28;20058;-82
2021/08/12 04:58:24;;;;;;;6.45;4.25;;;13.70;99.90;;;;;;4952190;28;20062;-81
2021/08/12 05:00:51;;;;;;;5.30;3.92;;;13.70;99.90;;;;;;4983852;28;20123;-82
2021/08/12 05:03:18;;;;;;;6.90;4.32;;;13.70;99.90;;;;;;4984067;28;20066;-85
2021/08/12 05:05:43;;;;;;;8.15;4.70;;;13.70;99.90;;;;;;4952105;28;20035;-85
2021/08/12 05:08:09;;;;;;;7.20;4.47;;;13.80;99.90;;;;;;4932888;28;20049;-86
2021/08/12 05:10:35;;;;;;;12.10;6.30;;;13.80;99.90;;;;;;4967835;28;20030;-86
2021/08/12 05:13:00;;;;;;;5.95;4.55;;;13.80;99.90;;;;;;4968361;28;20038;-86
2021/08/12 05:15:27;;;;;;;8.57;3.95;;;13.90;99.90;;;;;;4983795;28;20041;-85
2021/08/12 05:17:53;;;;;;;7.30;5.25;;;13.90;99.90;;;;;;4967517;28;20038;-86
2021/08/12 05:20:21;;;;;;;7.18;4.28;;;13.90;99.90;;;;;;4967841;28;20053;-85
2021/08/12 05:22:47;;;;;;;5.72;3.78;;;14.00;99.90;;;;;;4951841;28;20041;-86
2021/08/12 05:25:15;;;;;;;7.40;4.28;;;14.00;99.90;;;;;;4960551;28;20580;-87
2021/08/12 05:27:41;;;;;;;6.28;4.38;;;14.00;99.90;;;;;;5020962;28;20033;-85
2021/08/12 05:30:08;;;;;;;6.75;4.72;;;14.00;99.90;;;;;;5002725;28;20030;-87
2021/08/12 05:32:34;;;;;;;6.97;4.63;;;14.00;99.90;;;;;;5004525;28;20096;-86
2021/08/12 05:35:03;;;;;;;7.05;4.80;;;14.10;99.90;;;;;;5003433;28;20118;-86
2021/08/12 05:37:30;;;;;;;6.43;4.82;;;14.10;99.90;;;;;;5009805;28;20025;-85
2021/08/12 05:39:55;;;;;;;7.47;5.10;;;14.20;99.90;;;;;;5007743;28;20049;-86
2021/08/12 05:42:22;;;;;;;7.85;4.82;;;14.20;99.90;;;;;;5008162;28;20037;-86
2021/08/12 05:44:47;;;;;;;7.47;5.10;;;14.30;99.90;;;;;;5004313;28;20038;-86
2021/08/12 05:47:13;;;;;;;8.20;5.63;;;14.30;99.90;;;;;;5004277;28;20065;-86
2021/08/12 05:49:40;;;;;;;8.77;6.22;;;14.50;99.90;;;;;;4988276;28;20041;-86
2021/08/12 05:52:06;;;;;;;8.15;6.03;;;14.60;99.90;;;;;;4988261;28;20094;-87
2021/08/12 05:54:32;;;;;;;9.07;5.82;;;14.70;99.90;;;;;;4993601;28;20103;-86
2021/08/12 05:56:57;;;;;;;8.70;6.07;;;14.80;99.90;;;;;;4991511;28;20049;-85
2021/08/12 05:59:23;;;;;;;9.82;7.47;;;14.90;99.90;;;;;;5007147;28;20038;-85
2021/08/12 06:01:49;;;;;;;9.88;8.00;;;15.00;99.90;;;;;;5007491;28;20117;-86
2021/08/12 06:04:15;;;;;;;11.52;7.28;;;15.20;99.90;;;;;;5003545;28;20042;-85
2021/08/12 06:06:41;;;;;;;9.98;6.88;;;15.20;99.90;;;;;;4987946;28;20552;-85
2021/08/12 06:09:07;;;;;;;9.73;7.13;;;15.40;99.90;;;;;;4987870;28;20071;-86
2021/08/12 06:11:34;;;;;;;8.40;6.47;;;15.50;99.90;;;;;;4987769;28;20034;-85
2021/08/12 06:14:00;;;;;;;8.60;6.70;;;15.70;99.90;;;;;;4987596;28;20027;-85
2021/08/12 06:16:26;;;;;;;10.15;7.38;;;15.90;99.90;;;;;;4993537;28;20030;-85
2021/08/12 06:18:52;;;;;;;9.90;6.95;;;16.10;99.90;;;;;;5023764;28;20097;-85
2021/08/12 06:21:20;;;;;;;8.32;7.03;;;16.20;99.90;;;;;;5023572;28;20034;-85
2021/08/12 06:23:45;;;;;;;10.25;7.32;;;16.30;99.90;;;;;;5023653;28;20041;-85
2021/08/12 06:26:11;;;;;;;8.70;6.47;;;16.50;99.90;;;;;;5023723;28;20030;-86
2021/08/12 06:28:37;;;;;;;9.88;6.97;;;16.70;99.90;;;;;;5023489;28;20026;-86
2021/08/12 06:31:03;;;;;;;9.77;7.50;;;16.80;99.90;;;;;;5023737;28;20044;-86
2021/08/12 06:33:29;;;;;;;9.75;6.70;;;16.90;99.90;;;;;;5023799;28;20030;-86
2021/08/12 06:35:55;;;;;;;10.13;6.88;;;17.10;99.90;;;;;;5007170;28;20173;-86
2021/08/12 06:38:21;;;;;;;10.10;7.18;;;17.30;99.90;;;;;;5023714;28;20022;-86
2021/08/12 06:40:46;;;;;;;8.45;6.55;;;17.50;99.90;;;;;;5023295;28;20061;-86
2021/08/12 06:43:12;;;;;;;9.52;7.72;;;17.70;99.90;;;;;;5040327;28;20073;-86
2021/08/12 06:46:12;;;;;;;10.55;8.23;;;17.80;99.90;;;;;;5024960;28;20022;-86
2021/08/12 06:48:39;;;;;;;10.63;8.52;;;17.90;99.90;;;;;;4951719;29;20043;-85
2021/08/12 06:51:06;;;;;;;8.18;7.00;;;18.10;99.90;;;;;;4951384;29;20050;-85
2021/08/12 06:53:31;;;;;;;13.27;9.50;;;18.20;99.90;;;;;;4951626;29;20542;-85
2021/08/12 06:55:57;;;;;;;11.25;7.90;;;18.40;99.90;;;;;;4951258;29;20041;-85
2021/08/12 06:58:23;;;;;;;10.82;8.43;;;18.50;99.90;;;;;;4951078;29;20027;-85
2021/08/12 07:00:49;;;;;;;11.30;8.30;;;18.60;99.90;;;;;;4950987;29;20577;-84
2021/08/12 07:03:15;;;;;;;9.43;7.43;;;18.90;99.90;;;;;;4951102;29;20035;-84
2021/08/12 07:05:41;;;;;;;8.98;7.22;;;19.10;99.90;;;;;;4951057;29;20039;-84
2021/08/12 07:08:09;;;;;;;9.18;7.05;;;19.30;99.90;;;;;;4967034;29;20042;-85
2021/08/12 07:10:35;;;;;;;9.13;7.32;;;19.40;99.90;;;;;;4966646;29;20254;-85
2021/08/12 07:13:01;;;;;;;9.90;7.28;;;19.50;99.90;;;;;;4950947;29;20175;-85
2021/08/12 07:15:27;;;;;;;9.20;7.40;;;19.70;99.90;;;;;;4950654;29;20080;-85
2021/08/12 07:17:53;;;;;;;9.65;7.90;;;19.80;99.90;;;;;;4950875;29;20028;-85
2021/08/12 07:20:19;;;;;;;9.25;7.85;;;19.90;99.90;;;;;;4966632;29;20043;-85
2021/08/12 07:22:46;;;;;;;9.80;7.43;;;20.00;99.90;;;;;;4966772;29;20094;-85
2021/08/12 07:25:14;;;;;;;7.32;5.95;;;20.20;99.90;;;;;;4982514;28;20105;-84
2021/08/12 07:27:39;;;;;;;7.78;5.82;;;20.30;99.90;;;;;;5026179;28;20026;-85
2021/08/12 07:30:07;;;;;;;8.93;6.97;;;20.50;99.90;;;;;;5026188;28;20033;-85
2021/08/12 07:32:33;;;;;;;10.18;7.00;;;20.30;99.90;;;;;;5010994;28;20026;-85
2021/08/12 07:34:59;;;;;;;9.18;6.47;;;20.50;99.90;;;;;;5025994;28;20096;-84
2021/08/12 07:37:25;;;;;;;8.48;6.53;;;20.70;99.90;;;;;;5009744;28;20030;-85
2021/08/12 07:39:55;;;;;;;7.53;5.57;;;20.90;99.90;;;;;;5010215;28;20022;-85
2021/08/12 07:42:20;;;;;;;8.80;6.43;;;20.90;99.90;;;;;;5026087;28;20128;-85
2021/08/12 07:44:47;;;;;;;7.38;5.13;;;21.10;99.90;;;;;;5009419;28;20042;-85
2021/08/12 07:47:13;;;;;;;6.20;4.30;;;21.10;99.90;;;;;;5009237;28;20050;-84
2021/08/12 07:49:39;;;;;;;6.30;4.68;;;21.10;99.90;;;;;;5009752;28;20026;-85
2021/08/12 07:52:05;;;;;;;10.10;4.78;;;21.30;99.90;;;;;;5025864;28;20037;-85
2021/08/12 07:54:31;;;;;;;6.28;4.65;;;21.30;99.90;;;;;;5025987;28;20165;-84
2021/08/12 07:56:56;;;;;;;7.75;4.97;;;21.50;99.90;;;;;;5008448;28;20037;-84
2021/08/12 07:59:22;;;;;;;6.28;4.53;;;21.70;99.90;;;;;;5025777;28;20086;-84
2021/08/12 08:01:48;;;;;;;7.53;5.35;;;21.60;99.90;;;;;;5009351;28;20030;-84
2021/08/12 08:04:13;;;;;;;9.70;7.13;;;21.30;99.90;;;;;;5025540;28;20069;-84
2021/08/12 08:06:39;;;;;;;8.98;6.00;;;20.60;99.90;;;;;;5009205;28;20021;-84
2021/08/12 08:09:05;;;;;;;9.50;4.53;;;20.80;99.90;;;;;;5025498;28;20038;-85
2021/08/12 08:11:31;;;;;;;5.65;4.47;;;21.10;99.90;;;;;;5009067;28;20032;-84
2021/08/12 08:13:57;;;;;;;5.28;3.15;;;21.40;99.90;;;;;;5025512;28;20033;-83
2021/08/12 08:16:22;;;;;;;5.82;3.80;;;22.00;99.90;;;;;;5025202;28;20037;-85
2021/08/12 08:18:49;;;;;;;5.25;3.35;;;21.60;99.90;;;;;;5025164;28;20129;-84
2021/08/12 08:21:15;;;;;;;3.88;3.08;;;22.00;99.90;;;;;;5025395;28;20033;-85
2021/08/12 08:23:40;;;;;;;8.68;6.25;;;21.70;99.90;;;;;;5025069;28;20033;-85
2021/08/12 08:26:06;;;;;;;10.07;6.13;;;21.40;99.90;;;;;;5025111;28;20018;-84
2021/08/12 08:28:32;;;;;;;8.32;5.00;;;21.30;99.90;;;;;;5041410;28;20493;-83
2021/08/12 08:30:57;;;;;;;5.60;3.55;;;21.70;99.90;;;;;;5008666;28;20033;-83
2021/08/12 08:33:23;;;;;;;9.25;5.57;;;22.40;99.90;;;;;;5026196;28;20025;-84
2021/08/12 08:35:48;;;;;;;7.65;4.82;;;21.80;99.90;;;;;;5008521;28;20076;-84
2021/08/12 08:38:14;;;;;;;6.00;3.38;;;22.00;99.90;;;;;;5008499;28;20040;-83
2021/08/12 08:40:39;;;;;;;5.20;3.67;;;22.70;99.90;;;;;;5025056;28;20068;-83
2021/08/12 08:43:07;;;;;;;5.45;3.30;;;23.10;99.90;;;;;;5008422;28;20038;-84
2021/08/12 08:45:35;;;;;;;3.35;2.20;;;23.20;99.90;;;;;;5026004;28;20026;-84
2021/08/12 08:48:03;;;;;;;4.40;2.20;;;23.50;99.90;;;;;;5008140;28;20050;-83
2021/08/12 08:50:31;;;;;;;2.45;2.05;;;23.50;99.90;;;;;;5008229;28;20026;-85
2021/08/12 08:52:58;;;;;;;3.53;2.65;;;23.50;99.90;;;;;;5024563;28;20053;-84
2021/08/12 08:55:24;;;;;;;7.03;2.00;;;23.40;99.90;;;;;;5008415;28;20034;-84
2021/08/12 08:57:52;;;;;;;3.20;1.75;;;23.40;99.90;;;;;;5008007;28;20040;-85
2021/08/12 09:00:19;;;;;;;2.95;1.30;;;23.60;99.90;;;;;;5008855;28;20453;-84
2021/08/12 09:02:48;;;;;;;3.88;2.05;;;23.50;99.90;;;;;;5008042;28;20080;-84
2021/08/12 09:05:14;;;;;;;;;;;23.30;99.90;;;;;;5026568;28;20382;-84
2021/08/12 09:07:42;;;;;;;4.97;2.55;;;23.40;99.90;;;;;;5024284;28;19910;-84
2021/08/12 09:10:10;;;;;;;4.68;2.08;;;23.20;99.90;;;;;;5024076;28;20554;-84
2021/08/12 09:12:36;;;;;;;3.67;1.60;;;22.80;99.90;;;;;;5024329;28;20057;-84
2021/08/12 09:15:09;;;;;;;2.63;0.95;;;22.90;99.90;;;;;;5008059;28;20038;-84
2021/08/12 09:17:36;;;;;;;3.50;1.30;;;23.50;99.90;;;;;;5024063;28;20022;-84
2021/08/12 09:20:06;;;;;;;4.85;1.83;;;23.50;99.90;;;;;;5024085;28;20049;-84
2021/08/12 09:23:05;;;;;;;4.72;2.03;;;23.10;99.90;;;;;;5024222;28;20058;-83
2021/08/12 09:25:30;;;;;;;3.88;1.17;;;23.20;99.90;;;;;;5040764;28;20042;-84
2021/08/12 09:28:22;;;;;;;3.75;1.20;;;23.70;99.90;;;;;;5023693;28;20064;-82
2021/08/12 09:30:57;;;;;;;3.53;1.70;;;23.70;99.90;;;;;;5007681;28;20026;-83
2021/08/12 09:33:23;;;;;;;3.70;2.05;;;23.60;99.90;;;;;;5024027;28;20034;-83
2021/08/12 09:35:48;;;;;;;4.55;2.28;;;23.50;99.90;;;;;;5007616;28;20045;-84
2021/08/12 09:38:15;;;;;;;2.72;1.70;;;23.30;99.90;;;;;;5023831;28;20034;-83
2021/08/12 09:40:45;;;;;;;2.13;1.05;;;23.70;99.90;;;;;;5023824;28;20022;-83
2021/08/12 09:43:11;;;;;;;3.35;1.10;;;24.30;99.90;;;;;;5007268;28;20041;-83
2021/08/12 09:45:39;;;;;;;3.03;0.82;;;24.00;99.90;;;;;;5023765;28;20169;-83
2021/08/12 09:48:13;;;;;;;2.88;0.80;;;24.50;99.90;;;;;;5007200;28;20057;-84
2021/08/12 09:50:41;;;;;;;1.88;0.80;;;25.00;99.90;;;;;;5007203;28;20041;-84
2021/08/12 09:53:08;;;;;;;1.42;0.70;;;25.30;99.90;;;;;;5023732;28;20038;-84
2021/08/12 09:55:40;;;;;;;3.28;0.90;;;25.20;99.90;;;;;;5007391;28;20058;-84
2021/08/12 09:58:06;;;;;;;2.00;1.08;;;25.30;99.90;;;;;;5007215;28;20037;-84
2021/08/12 10:00:42;;;;;;;2.25;1.00;;;24.90;99.90;;;;;;5007236;28;20041;-83
2021/08/12 10:03:30;;;;;;;2.97;1.20;;;24.40;99.90;;;;;;5023653;28;20042;-85
2021/08/12 10:05:58;;;;;;;2.92;1.17;;;24.20;99.90;;;;;;5007271;28;20026;-85
2021/08/12 10:08:30;;;;;;;6.38;3.47;;;24.40;99.90;;;;;;5007266;28;20033;-84
2021/08/12 10:10:57;;;;;;;3.90;2.35;;;23.70;99.90;;;;;;5007314;28;20030;-85
2021/08/12 10:13:23;;;;;;;3.85;1.58;;;23.90;99.90;;;;;;5024815;28;20034;-85
2021/08/12 10:15:50;;;;;;;6.63;2.33;;;24.50;99.90;;;;;;5007294;28;20038;-84
2021/08/12 10:18:18;;;;;;;4.75;2.15;;;24.40;99.90;;;;;;5023463;28;20133;-84
2021/08/12 10:20:45;;;;;;;2.10;1.35;;;24.60;99.90;;;;;;4984126;28;20037;-84
2021/08/12 10:23:12;;;;;;;4.53;1.55;;;25.00;99.90;;;;;;5011011;28;20079;-85
2021/08/12 10:25:37;;;;;;;3.25;1.77;;;25.80;99.90;;;;;;5027512;28;20034;-85
2021/08/12 10:28:05;;;;;;;2.22;1.08;;;25.50;99.90;;;;;;5027359;28;20030;-85
2021/08/12 10:30:32;;;;;;;1.85;1.20;;;25.60;99.90;;;;;;5010953;28;20030;-85
2021/08/12 10:33:04;;;;;;;2.78;1.15;;;25.90;99.90;;;;;;5027512;28;20030;-84
2021/08/12 10:35:32;;;;;;;2.83;1.08;;;26.10;99.90;;;;;;5028479;28;20045;-84
2021/08/12 10:37:59;;;;;;;2.35;1.10;;;26.20;99.90;;;;;;5027319;28;20029;-85
2021/08/12 10:40:31;;;;;;;4.03;2.63;;;26.20;99.90;;;;;;5026924;28;20049;-84
2021/08/12 10:42:59;;;;;;;3.15;1.10;;;25.30;99.90;;;;;;5011042;28;20030;-85
2021/08/12 10:45:27;;;;;;;2.70;1.15;;;26.30;99.90;;;;;;5010389;28;20088;-84
2021/08/12 10:47:54;;;;;;;2.60;0.95;;;26.80;99.90;;;;;;5026941;28;20057;-85
2021/08/12 10:50:31;;;;;;;1.90;0.80;;;26.50;99.90;;;;;;5010525;28;20048;-84
2021/08/12 10:53:12;;;;;;;2.70;1.25;;;26.50;99.90;;;;;;5027033;28;20026;-84
2021/08/12 10:55:38;;;;;;;3.58;0.90;;;26.70;99.90;;;;;;5028251;28;20105;-85
2021/08/12 10:58:22;;;;;;;3.55;1.33;;;26.50;99.90;;;;;;5010537;28;20018;-85
2021/08/12 11:00:53;;;;;;;2.80;1.30;;;25.40;99.90;;;;;;5010079;28;20033;-84
2021/08/12 11:03:34;;;;;;;2.92;1.20;;;25.70;99.90;;;;;;5010331;28;20038;-84
2021/08/12 11:06:09;;;;;;;4.90;2.50;;;26.10;99.90;;;;;;5010467;28;20030;-85
2021/08/12 11:08:50;;;;;;;3.15;1.52;;;25.20;99.90;;;;;;5010155;28;20498;-84
2021/08/12 11:11:31;;;;;;;3.88;0.90;;;25.30;99.90;;;;;;5010131;28;20068;-83
2021/08/12 11:13:57;;;;;;;1.75;0.85;;;25.80;99.90;;;;;;5027729;28;20087;-84
2021/08/12 11:16:26;;;;;;;2.00;0.88;;;26.30;99.90;;;;;;5010066;28;20044;-85
2021/08/12 11:18:57;;;;;;;1.90;0.73;;;26.40;99.90;;;;;;5026489;28;20528;-86
2021/08/12 11:21:29;;;;;;;2.65;1.30;;;25.80;99.90;;;;;;5026195;28;20285;-85
2021/08/12 11:24:05;;;;;;;2.40;1.00;;;25.30;99.90;;;;;;5026233;28;20038;-84
2021/08/12 11:26:40;;;;;;;3.05;1.10;;;25.40;99.90;;;;;;5026176;28;20429;-84
2021/08/12 11:29:06;;;;;;;2.90;1.58;;;26.10;99.90;;;;;;5006447;28;20023;-83
2021/08/12 11:31:32;;;;;;;4.35;1.30;;;25.70;99.90;;;;;;5007686;28;20043;-85
2021/08/12 11:34:02;;;;;;;3.60;1.63;;;25.40;99.90;;;;;;4990415;28;20038;-85
2021/08/12 11:36:29;;;;;;;1.95;0.90;;;25.20;99.90;;;;;;5006325;28;20094;-85
2021/08/12 11:39:05;;;;;;;2.38;0.90;;;26.10;99.90;;;;;;5006177;28;20038;-85
2021/08/12 11:41:42;;;;;;;3.65;1.40;;;26.40;99.90;;;;;;5022571;28;20026;-86
2021/08/12 11:44:13;;;;;;;3.75;1.40;;;26.00;99.90;;;;;;5022666;28;20038;-86
2021/08/12 11:46:40;;;;;;;4.03;1.50;;;25.20;99.90;;;;;;5005776;28;20033;-85
2021/08/12 11:49:06;;;;;;;3.05;1.20;;;25.00;99.90;;;;;;5005907;28;20053;-84
2021/08/12 11:51:34;;;;;;;4.80;2.03;;;24.60;99.90;;;;;;5005997;28;20035;-84
2021/08/12 11:54:01;;;;;;;3.85;2.08;;;24.70;99.90;;;;;;5006184;28;20140;-85
2021/08/12 11:56:32;;;;;;;2.10;1.15;;;24.90;99.90;;;;;;4989713;28;20027;-84
2021/08/12 11:59:00;;;;;;;2.35;0.90;;;26.20;99.90;;;;;;5005925;28;20474;-84
2021/08/12 12:01:28;;;;;;;2.55;1.00;;;26.80;99.90;;;;;;5005793;28;20030;-84
2021/08/12 12:04:02;;;;;;;2.67;0.88;;;26.50;99.90;;;;;;5006037;28;20053;-84
2021/08/12 12:06:30;;;;;;;3.63;1.70;;;27.50;99.90;;;;;;5022051;28;20478;-85
2021/08/12 12:08:55;;;;;;;2.72;1.27;;;25.70;99.90;;;;;;5005676;28;20117;-83
2021/08/12 12:11:21;;;;;;;2.53;1.10;;;25.40;99.90;;;;;;4989435;28;20479;-83
2021/08/12 12:13:46;;;;;;;2.75;0.95;;;25.70;99.90;;;;;;5006949;28;20032;-83
2021/08/12 12:16:12;;;;;;;2.63;1.10;;;25.70;99.90;;;;;;5009891;28;20068;-83
2021/08/12 12:18:42;;;;;;;2.58;1.00;;;26.00;99.90;;;;;;5025009;28;20030;-82
2021/08/12 12:21:13;;;;;;;3.75;1.20;;;26.10;99.90;;;;;;5025013;28;20036;-84
2021/08/12 12:23:41;;;;;;;3.22;1.15;;;26.30;99.90;;;;;;5025155;28;20053;-83
2021/08/12 12:26:17;;;;;;;2.30;1.10;;;26.20;99.90;;;;;;5024889;28;20053;-83
2021/08/12 12:28:43;;;;;;;2.72;1.27;;;26.10;99.90;;;;;;5021610;28;20049;-83
2021/08/12 12:31:17;;;;;;;2.08;1.00;;;26.50;99.90;;;;;;5005218;28;20033;-83
2021/08/12 12:33:43;;;;;;;2.50;1.02;;;26.70;99.90;;;;;;5005211;28;20034;-83
2021/08/12 12:36:10;;;;;;;4.10;0.90;;;27.50;99.90;;;;;;4988928;28;20065;-84
2021/08/12 12:38:36;;;;;;;1.88;0.90;;;27.50;99.90;;;;;;5006252;28;20037;-83
2021/08/12 12:41:09;;;;;;;1.83;0.65;;;27.70;99.90;;;;;;5005009;28;20030;-83
2021/08/12 12:43:35;;;;;;;2.90;0.90;;;27.90;99.90;;;;;;5004438;28;20062;-83
2021/08/12 12:49:24;;;;;;;2.85;0.82;;;26.20;99.90;;;;;;5004961;28;20073;-84
2021/08/12 12:51:50;;;;;;;;;;;26.40;99.90;;;;;;4989543;28;20036;-84
2021/08/12 12:54:29;;;;;;;3.28;0.95;;;26.90;99.90;;;;;;4989401;28;19948;-84
2021/08/12 12:56:54;;;;;;;2.87;0.93;;;27.30;99.90;;;;;;4989145;28;20137;-84
2021/08/12 12:59:20;;;;;;;2.65;1.05;;;27.30;99.90;;;;;;4989071;28;20281;-82